createdAt,value
2023-05-06T00:00:03.026Z,9.8
2023-05-06T00:02:03.872Z,9.8
2023-05-06T00:04:03.669Z,9.8
2023-05-06T00:06:06.429Z,9.8
2023-05-06T00:08:03.597Z,9.8
2023-05-06T00:10:04.593Z,9.7
2023-05-06T00:12:02.815Z,9.7
2023-05-06T00:14:04.670Z,9.7
2023-05-06T00:16:02.320Z,9.7
2023-05-06T00:18:03.076Z,9.6
2023-05-06T00:20:03.265Z,9.6
2023-05-06T00:22:04.263Z,9.7
2023-05-06T00:24:03.079Z,9.6
2023-05-06T00:26:03.322Z,9.7
2023-05-06T00:28:02.472Z,9.7
2023-05-06T00:30:02.590Z,9.7
2023-05-06T00:32:02.323Z,9.7
2023-05-06T00:34:05.315Z,9.7
2023-05-06T00:36:05.095Z,9.7
2023-05-06T00:38:09.618Z,9.7
2023-05-06T00:40:08.611Z,9.7
2023-05-06T00:42:03.274Z,9.7
2023-05-06T00:44:04.001Z,9.7
2023-05-06T00:46:02.453Z,9.6
2023-05-06T00:48:05.648Z,9.6
2023-05-06T00:50:04.074Z,9.6
2023-05-06T00:52:03.046Z,9.6
2023-05-06T00:54:04.342Z,9.5
2023-05-06T00:56:03.438Z,9.6
2023-05-06T00:58:04.301Z,9.6
2023-05-06T01:00:02.729Z,9.6
2023-05-06T01:02:03.001Z,9.6
2023-05-06T01:04:03.444Z,9.5
2023-05-06T01:06:12.272Z,9.5
2023-05-06T01:08:11.358Z,9.5
2023-05-06T01:10:11.255Z,9.5
2023-05-06T01:12:10.473Z,9.5
2023-05-06T01:14:12.374Z,9.4
2023-05-06T01:16:06.905Z,9.4
2023-05-06T01:18:08.990Z,9.5
2023-05-06T01:20:05.912Z,9.5
2023-05-06T01:22:05.730Z,9.5
2023-05-06T01:24:05.406Z,9.5
2023-05-06T01:26:06.782Z,9.4
2023-05-06T01:28:03.846Z,9.4
2023-05-06T01:30:05.859Z,9.4
2023-05-06T01:32:14.591Z,9.4
2023-05-06T01:34:13.097Z,9.4
2023-05-06T01:36:13.570Z,9.3
2023-05-06T01:38:10.091Z,9.3
2023-05-06T01:40:07.711Z,9.3
2023-05-06T01:42:03.550Z,9.3
2023-05-06T01:44:05.988Z,9.3
2023-05-06T01:46:04.574Z,9.3
2023-05-06T01:48:02.917Z,9.3
2023-05-06T01:50:03.450Z,9.3
2023-05-06T01:52:03.023Z,9.3
2023-05-06T01:54:02.797Z,9.3
2023-05-06T01:56:05.227Z,9.3
2023-05-06T01:58:03.632Z,9.4
2023-05-06T02:00:03.478Z,9.3
2023-05-06T02:02:02.244Z,9.3
2023-05-06T02:04:04.757Z,9.3
2023-05-06T02:06:02.976Z,9.3
2023-05-06T02:08:03.428Z,9.3
2023-05-06T02:10:03.645Z,9.3
2023-05-06T02:12:03.790Z,9.3
2023-05-06T02:14:02.683Z,9.3
2023-05-06T02:16:03.124Z,9.3
2023-05-06T02:18:03.474Z,9.3
2023-05-06T02:20:04.439Z,9.3
2023-05-06T02:22:04.008Z,9.3
2023-05-06T02:24:03.732Z,9.3
2023-05-06T02:26:02.972Z,9.3
2023-05-06T02:28:03.469Z,9.3
2023-05-06T02:30:03.283Z,9.3
2023-05-06T02:32:04.513Z,9.3
2023-05-06T02:34:04.211Z,9.3
2023-05-06T02:36:03.541Z,9.3
2023-05-06T02:38:02.357Z,9.2
2023-05-06T02:40:04.116Z,9.2
2023-05-06T02:42:03.191Z,9.2
2023-05-06T02:44:02.426Z,9.2
2023-05-06T02:46:03.028Z,9.2
2023-05-06T02:48:04.111Z,9.2
2023-05-06T02:50:02.223Z,9.2
2023-05-06T02:52:08.296Z,9.1
2023-05-06T02:54:08.278Z,9.1
2023-05-06T02:56:02.661Z,9.1
2023-05-06T02:58:02.617Z,9.1
2023-05-06T03:00:03.206Z,9.1
2023-05-06T03:02:03.778Z,9.1
2023-05-06T03:04:03.232Z,9.1
2023-05-06T03:06:02.446Z,9.1
2023-05-06T03:08:07.039Z,9.1
2023-05-06T03:10:05.113Z,9.0
2023-05-06T03:12:03.026Z,8.9
2023-05-06T03:14:03.071Z,9.0
2023-05-06T03:16:03.597Z,9.0
2023-05-06T03:18:02.449Z,9.0
2023-05-06T03:20:02.316Z,8.9
2023-05-06T03:22:02.402Z,8.9
2023-05-06T03:24:02.858Z,8.9
2023-05-06T03:26:02.917Z,8.9
2023-05-06T03:28:03.931Z,8.9
2023-05-06T03:30:03.909Z,8.9
2023-05-06T03:32:05.705Z,8.9
2023-05-06T03:34:03.511Z,8.9
2023-05-06T03:36:03.267Z,8.8
2023-05-06T03:38:03.491Z,8.9
2023-05-06T03:40:04.200Z,8.8
2023-05-06T03:42:02.328Z,8.8
2023-05-06T03:44:02.213Z,8.8
2023-05-06T03:46:03.133Z,8.8
2023-05-06T03:48:02.378Z,8.8
2023-05-06T03:50:02.525Z,8.8
2023-05-06T03:52:03.706Z,8.8
2023-05-06T03:54:02.296Z,8.8
2023-05-06T03:56:02.925Z,8.8
2023-05-06T03:58:02.796Z,8.7
2023-05-06T04:00:02.840Z,8.8
2023-05-06T04:02:03.013Z,8.8
2023-05-06T04:04:04.194Z,8.7
2023-05-06T04:06:02.502Z,8.7
2023-05-06T04:08:03.873Z,8.8
2023-05-06T04:10:03.453Z,8.7
2023-05-06T04:12:03.847Z,8.7
2023-05-06T04:14:02.191Z,8.7
2023-05-06T04:16:03.733Z,8.7
2023-05-06T04:18:02.226Z,8.7
2023-05-06T04:20:11.520Z,8.6
2023-05-06T04:22:02.304Z,8.7
2023-05-06T04:24:02.423Z,8.7
2023-05-06T04:26:03.467Z,8.6
2023-05-06T04:28:03.109Z,8.6
2023-05-06T04:30:03.627Z,8.6
2023-05-06T04:32:02.817Z,8.6
2023-05-06T04:34:03.772Z,8.6
2023-05-06T04:36:07.337Z,8.6
2023-05-06T04:38:02.991Z,8.5
2023-05-06T04:40:04.192Z,8.5
2023-05-06T04:42:03.083Z,8.6
2023-05-06T04:44:03.039Z,8.6
2023-05-06T04:46:03.091Z,8.5
2023-05-06T04:48:02.589Z,8.5
2023-05-06T04:50:02.257Z,8.6
2023-05-06T04:52:02.502Z,8.5
2023-05-06T04:54:02.397Z,8.5
2023-05-06T04:56:02.276Z,8.5
2023-05-06T04:58:03.687Z,8.4
2023-05-06T05:00:03.629Z,8.5
2023-05-06T05:02:04.948Z,8.4
2023-05-06T05:04:03.654Z,8.5
2023-05-06T05:06:03.953Z,8.4
2023-05-06T05:08:03.348Z,8.4
2023-05-06T05:10:03.346Z,8.4
2023-05-06T05:12:03.207Z,8.4
2023-05-06T05:14:02.891Z,8.4
2023-05-06T05:16:05.242Z,8.4
2023-05-06T05:18:04.644Z,8.4
2023-05-06T05:20:04.371Z,8.4
2023-05-06T05:22:02.588Z,8.4
2023-05-06T05:24:02.216Z,8.4
2023-05-06T05:26:03.960Z,8.4
2023-05-06T05:28:02.254Z,8.4
2023-05-06T05:30:05.139Z,8.4
2023-05-06T05:32:04.040Z,8.4
2023-05-06T05:34:04.187Z,8.4
2023-05-06T05:36:04.201Z,8.4
2023-05-06T05:38:02.096Z,8.4
2023-05-06T05:40:06.478Z,8.4
2023-05-06T05:42:04.319Z,8.4
2023-05-06T05:44:02.379Z,8.5
2023-05-06T05:46:03.273Z,8.4
2023-05-06T05:48:04.145Z,8.5
2023-05-06T05:50:02.432Z,8.5
2023-05-06T05:52:02.265Z,8.5
2023-05-06T05:54:04.229Z,8.5
2023-05-06T05:56:03.586Z,8.4
2023-05-06T05:58:02.869Z,8.4
2023-05-06T06:00:02.868Z,8.4
2023-05-06T06:02:02.357Z,8.4
2023-05-06T06:04:02.263Z,8.4
2023-05-06T06:06:02.857Z,8.4
2023-05-06T06:08:03.913Z,8.4
2023-05-06T06:10:03.987Z,8.4
2023-05-06T06:12:02.813Z,8.4
2023-05-06T06:14:04.830Z,8.4
2023-05-06T06:16:02.608Z,8.4
2023-05-06T06:18:03.378Z,8.4
2023-05-06T06:20:04.436Z,8.4
2023-05-06T06:22:03.229Z,8.4
2023-05-06T06:24:03.089Z,8.4
2023-05-06T06:26:05.503Z,8.4
2023-05-06T06:28:03.579Z,8.3
2023-05-06T06:30:03.178Z,8.3
2023-05-06T06:32:05.136Z,8.3
2023-05-06T06:34:05.950Z,8.3
2023-05-06T06:36:02.566Z,8.3
2023-05-06T06:38:02.567Z,8.3
2023-05-06T06:40:02.281Z,8.3
2023-05-06T06:42:09.387Z,8.3
2023-05-06T06:44:03.027Z,8.3
2023-05-06T06:46:05.804Z,8.3
2023-05-06T06:48:03.363Z,8.2
2023-05-06T06:50:03.830Z,8.2
2023-05-06T06:52:02.764Z,8.2
2023-05-06T06:54:03.872Z,8.2
2023-05-06T06:56:03.346Z,8.2
2023-05-06T06:58:04.910Z,8.2
2023-05-06T07:00:02.373Z,8.2
2023-05-06T07:02:03.642Z,8.2
2023-05-06T07:04:02.328Z,8.2
2023-05-06T07:06:03.849Z,8.2
2023-05-06T07:08:03.518Z,8.2
2023-05-06T07:10:02.704Z,8.2
2023-05-06T07:12:02.481Z,8.1
2023-05-06T07:14:03.418Z,8.2
2023-05-06T07:16:03.680Z,8.2
2023-05-06T07:18:03.997Z,8.1
2023-05-06T07:20:03.364Z,8.1
2023-05-06T07:22:02.714Z,8.1
2023-05-06T07:24:03.302Z,8.1
2023-05-06T07:26:02.257Z,8.1
2023-05-06T07:28:03.208Z,8.1
2023-05-06T07:30:03.005Z,8.1
2023-05-06T07:32:02.341Z,8.1
2023-05-06T07:34:03.199Z,8.1
2023-05-06T07:36:03.742Z,8.1
2023-05-06T07:38:04.367Z,8.1
2023-05-06T07:40:02.476Z,8.1
2023-05-06T07:42:03.473Z,8.1
2023-05-06T07:44:03.491Z,8.1
2023-05-06T07:46:02.670Z,8.1
2023-05-06T07:48:03.324Z,8.0
2023-05-06T07:50:06.321Z,8.1
2023-05-06T07:52:03.691Z,8.0
2023-05-06T07:54:03.840Z,8.0
2023-05-06T07:56:04.211Z,8.0
2023-05-06T07:58:02.629Z,8.1
2023-05-06T08:00:03.363Z,8.0
2023-05-06T08:02:04.063Z,8.0
2023-05-06T08:04:04.328Z,8.0
2023-05-06T08:06:04.925Z,8.0
2023-05-06T08:08:02.396Z,8.0
2023-05-06T08:10:02.912Z,8.0
2023-05-06T08:12:02.465Z,8.0
2023-05-06T08:14:02.793Z,8.0
2023-05-06T08:16:03.222Z,8.0
2023-05-06T08:18:17.974Z,8.0
2023-05-06T08:20:03.527Z,8.0
2023-05-06T08:22:03.645Z,8.0
2023-05-06T08:24:02.312Z,7.9
2023-05-06T08:26:03.087Z,7.9
2023-05-06T08:28:02.588Z,7.9
2023-05-06T08:30:02.295Z,7.9
2023-05-06T08:32:02.692Z,7.9
2023-05-06T08:34:05.085Z,7.9
2023-05-06T08:36:03.278Z,7.9
2023-05-06T08:38:02.857Z,7.9
2023-05-06T08:40:05.377Z,7.9
2023-05-06T08:42:04.505Z,7.9
2023-05-06T08:44:05.692Z,7.9
2023-05-06T08:46:02.382Z,7.9
2023-05-06T08:48:02.474Z,7.9
2023-05-06T08:50:04.389Z,7.9
2023-05-06T08:52:05.434Z,7.9
2023-05-06T08:54:05.430Z,7.9
2023-05-06T08:56:08.063Z,7.9
2023-05-06T08:58:07.926Z,7.9
2023-05-06T09:00:04.233Z,7.9
2023-05-06T09:02:04.521Z,7.9
2023-05-06T09:04:04.100Z,7.9
2023-05-06T09:06:02.839Z,7.9
2023-05-06T09:08:03.970Z,8.0
2023-05-06T09:10:06.434Z,7.9
2023-05-06T09:12:02.413Z,7.9
2023-05-06T09:14:13.648Z,7.9
2023-05-06T09:16:02.969Z,7.9
2023-05-06T09:18:04.043Z,7.9
2023-05-06T09:20:03.001Z,7.9
2023-05-06T09:22:05.313Z,7.9
2023-05-06T09:24:05.503Z,7.9
2023-05-06T09:26:02.286Z,7.9
2023-05-06T09:28:07.164Z,7.9
2023-05-06T09:30:04.695Z,7.9
2023-05-06T09:32:08.197Z,7.9
2023-05-06T09:34:03.424Z,8.0
2023-05-06T09:36:04.837Z,7.9
2023-05-06T09:38:02.197Z,8.0
2023-05-06T09:40:03.118Z,7.9
2023-05-06T09:42:07.301Z,7.9
2023-05-06T09:44:05.910Z,8.0
2023-05-06T09:46:03.093Z,8.0
2023-05-06T09:48:02.640Z,8.0
2023-05-06T09:50:04.333Z,8.0
2023-05-06T09:52:07.226Z,8.1
2023-05-06T09:54:04.156Z,8.1
2023-05-06T09:56:03.670Z,8.0
2023-05-06T09:58:04.379Z,8.0
2023-05-06T10:00:06.656Z,8.1
2023-05-06T10:02:04.213Z,8.1
2023-05-06T10:04:06.545Z,8.0
2023-05-06T10:06:05.871Z,8.0
2023-05-06T10:08:03.732Z,8.0
2023-05-06T10:10:04.820Z,8.0
2023-05-06T10:12:05.347Z,8.0
2023-05-06T10:14:05.167Z,7.9
2023-05-06T10:16:08.108Z,8.0
2023-05-06T10:18:03.724Z,8.0
2023-05-06T10:20:04.348Z,8.0
2023-05-06T10:22:11.084Z,8.0
2023-05-06T10:24:07.357Z,8.0
2023-05-06T10:26:07.064Z,7.9
2023-05-06T10:28:20.929Z,8.0
2023-05-06T10:30:02.508Z,8.0
2023-05-06T10:32:03.549Z,8.0
2023-05-06T10:34:07.762Z,8.0
2023-05-06T10:36:10.767Z,7.9
2023-05-06T10:38:06.022Z,8.0
2023-05-06T10:40:05.094Z,7.9
2023-05-06T10:42:02.508Z,7.9
2023-05-06T10:44:04.276Z,8.0
2023-05-06T10:46:06.488Z,7.9
2023-05-06T10:48:09.900Z,8.0
2023-05-06T10:50:20.740Z,7.9
2023-05-06T10:52:13.795Z,8.0
2023-05-06T10:54:05.061Z,8.0
2023-05-06T10:56:08.975Z,8.0
2023-05-06T10:58:06.558Z,8.0
2023-05-06T11:00:02.236Z,8.0
2023-05-06T11:02:16.487Z,8.0
2023-05-06T11:04:06.665Z,8.0
2023-05-06T11:06:04.697Z,8.0
2023-05-06T11:08:10.989Z,8.0
2023-05-06T11:10:05.655Z,8.0
2023-05-06T11:12:04.213Z,8.0
2023-05-06T11:14:12.847Z,8.1
2023-05-06T11:16:03.210Z,8.0
2023-05-06T11:18:21.244Z,8.1
2023-05-06T11:20:21.891Z,8.1
2023-05-06T11:22:04.499Z,8.1
2023-05-06T11:24:13.924Z,8.1
2023-05-06T11:26:07.421Z,8.1
2023-05-06T11:28:06.993Z,8.1
2023-05-06T11:30:05.467Z,8.1
2023-05-06T11:32:03.893Z,8.1
2023-05-06T11:34:06.869Z,8.1
2023-05-06T11:36:06.482Z,8.1
2023-05-06T11:38:03.727Z,8.1
2023-05-06T11:40:05.747Z,8.1
2023-05-06T11:42:07.792Z,8.1
2023-05-06T11:44:04.975Z,8.1
2023-05-06T11:46:03.876Z,8.1
2023-05-06T11:48:03.381Z,8.1
2023-05-06T11:50:06.827Z,8.1
2023-05-06T11:52:03.301Z,8.1
2023-05-06T11:54:08.578Z,8.1
2023-05-06T11:56:02.351Z,8.1
2023-05-06T11:58:02.237Z,8.1
2023-05-06T12:00:05.154Z,8.1
2023-05-06T12:02:04.835Z,8.1
2023-05-06T12:04:03.551Z,8.1
2023-05-06T12:06:02.681Z,8.1
2023-05-06T12:08:06.297Z,8.1
2023-05-06T12:10:10.377Z,8.1
2023-05-06T12:12:06.940Z,8.1
2023-05-06T12:14:04.133Z,8.1
2023-05-06T12:16:03.315Z,8.1
2023-05-06T12:18:06.630Z,8.1
2023-05-06T12:20:05.491Z,8.1
2023-05-06T12:22:15.861Z,8.1
2023-05-06T12:24:03.333Z,8.0
2023-05-06T12:26:04.607Z,8.0
2023-05-06T12:28:16.198Z,8.0
2023-05-06T12:30:03.906Z,8.1
2023-05-06T12:32:12.824Z,8.1
2023-05-06T12:34:08.074Z,8.0
2023-05-06T12:36:09.107Z,8.1
2023-05-06T12:38:10.239Z,8.0
2023-05-06T12:40:04.668Z,8.0
2023-05-06T12:42:02.912Z,8.0
2023-05-06T12:44:02.497Z,8.0
2023-05-06T12:46:05.099Z,8.1
2023-05-06T12:48:03.603Z,8.0
2023-05-06T12:50:03.876Z,8.0
2023-05-06T12:52:07.989Z,8.0
2023-05-06T12:54:04.141Z,8.1
2023-05-06T12:56:03.268Z,8.0
2023-05-06T12:58:04.235Z,8.0
2023-05-06T13:00:07.180Z,8.0
2023-05-06T13:02:04.382Z,8.0
2023-05-06T13:04:02.593Z,8.0
2023-05-06T13:06:02.214Z,8.0
2023-05-06T13:08:04.467Z,8.0
2023-05-06T13:10:05.749Z,8.0
2023-05-06T13:12:04.078Z,8.0
2023-05-06T13:14:02.374Z,8.0
2023-05-06T13:16:04.231Z,8.0
2023-05-06T13:18:04.210Z,8.0
2023-05-06T13:20:05.237Z,8.1
2023-05-06T13:22:03.871Z,8.0
2023-05-06T13:24:04.351Z,8.0
2023-05-06T13:26:05.777Z,8.0
2023-05-06T13:28:02.289Z,8.0
2023-05-06T13:30:03.217Z,8.0
2023-05-06T13:32:08.596Z,7.9
2023-05-06T13:34:03.468Z,8.0
2023-05-06T13:36:05.104Z,8.0
2023-05-06T13:38:02.514Z,7.9
2023-05-06T13:40:02.875Z,8.0
2023-05-06T13:42:05.396Z,8.0
2023-05-06T13:44:03.537Z,8.0
2023-05-06T13:46:04.137Z,8.0
2023-05-06T13:48:06.626Z,8.0
2023-05-06T13:50:05.499Z,8.0
2023-05-06T13:52:08.485Z,8.1
2023-05-06T13:54:05.424Z,8.0
2023-05-06T13:56:02.753Z,8.1
2023-05-06T13:58:02.945Z,8.1
2023-05-06T14:00:03.220Z,8.1
2023-05-06T14:02:07.250Z,8.1
2023-05-06T14:04:02.685Z,8.1
2023-05-06T14:06:04.020Z,8.1
2023-05-06T14:08:04.525Z,8.1
2023-05-06T14:10:03.997Z,8.1
2023-05-06T14:12:02.533Z,8.1
2023-05-06T14:14:02.325Z,8.1
2023-05-06T14:16:05.144Z,8.1
2023-05-06T14:18:04.268Z,8.2
2023-05-06T14:20:02.762Z,8.2
2023-05-06T14:22:03.729Z,8.2
2023-05-06T14:24:03.015Z,8.2
2023-05-06T14:26:02.686Z,8.2
2023-05-06T14:28:07.091Z,8.2
2023-05-06T14:30:09.020Z,8.2
2023-05-06T14:32:03.798Z,8.2
2023-05-06T14:34:06.448Z,8.2
2023-05-06T14:36:03.216Z,8.2
2023-05-06T14:38:02.832Z,8.2
2023-05-06T14:40:04.044Z,8.3
2023-05-06T14:42:03.368Z,8.3
2023-05-06T14:44:02.984Z,8.3
2023-05-06T14:46:03.090Z,8.2
2023-05-06T14:48:02.803Z,8.2
2023-05-06T14:50:08.404Z,8.2
2023-05-06T14:52:02.664Z,8.2
2023-05-06T14:54:02.610Z,8.2
2023-05-06T14:56:02.862Z,8.2
2023-05-06T14:58:03.216Z,8.3
2023-05-06T15:00:04.474Z,8.3
2023-05-06T15:02:03.107Z,8.3
2023-05-06T15:04:07.191Z,8.3
2023-05-06T15:06:05.470Z,8.3
2023-05-06T15:08:05.798Z,8.3
2023-05-06T15:10:03.794Z,8.3
2023-05-06T15:12:02.675Z,8.3
2023-05-06T15:14:02.786Z,8.3
2023-05-06T15:16:02.445Z,8.3
2023-05-06T15:18:02.236Z,8.3
2023-05-06T15:20:04.298Z,8.4
2023-05-06T15:22:03.167Z,8.3
2023-05-06T15:24:02.516Z,8.4
2023-05-06T15:26:02.565Z,8.3
2023-05-06T15:28:05.215Z,8.3
2023-05-06T15:30:03.702Z,8.3
2023-05-06T15:32:03.127Z,8.3
2023-05-06T15:34:03.011Z,8.3
2023-05-06T15:36:02.935Z,8.3
2023-05-06T15:38:05.514Z,8.3
2023-05-06T15:40:05.353Z,8.3
2023-05-06T15:42:03.968Z,8.3
2023-05-06T15:44:06.542Z,8.3
2023-05-06T15:46:02.275Z,8.3
2023-05-06T15:48:03.817Z,8.2
2023-05-06T15:52:03.093Z,8.2
2023-05-06T15:54:03.814Z,8.2
2023-05-06T15:56:13.444Z,8.2
2023-05-06T15:58:02.194Z,8.2
2023-05-06T16:00:02.622Z,8.3
2023-05-06T16:04:02.362Z,8.3
2023-05-06T16:06:04.777Z,8.3
2023-05-06T16:08:02.495Z,8.3
2023-05-06T16:10:06.145Z,8.4
2023-05-06T16:12:05.376Z,8.3
2023-05-06T16:14:04.636Z,8.4
2023-05-06T16:16:02.545Z,8.4
2023-05-06T16:18:03.595Z,8.4
2023-05-06T16:20:03.966Z,8.4
2023-05-06T16:22:04.886Z,8.6
2023-05-06T16:24:04.335Z,8.6
2023-05-06T16:26:03.675Z,8.6
2023-05-06T16:28:02.928Z,8.7
2023-05-06T16:30:03.132Z,8.7
2023-05-06T16:32:03.067Z,8.7
2023-05-06T16:34:02.560Z,8.8
2023-05-06T16:36:03.561Z,8.8
2023-05-06T16:38:02.390Z,8.8
2023-05-06T16:40:04.118Z,8.8
2023-05-06T16:42:02.801Z,8.9
2023-05-06T16:44:03.834Z,8.9
2023-05-06T16:46:02.636Z,8.9
2023-05-06T16:48:03.961Z,9.1
2023-05-06T16:50:02.444Z,9.1
2023-05-06T16:52:03.523Z,9.1
2023-05-06T16:54:02.790Z,9.1
2023-05-06T16:56:03.453Z,9.1
2023-05-06T16:58:03.908Z,9.1
2023-05-06T17:00:08.146Z,9.2
2023-05-06T17:02:04.450Z,9.2
2023-05-06T17:04:02.697Z,9.2
2023-05-06T17:06:03.460Z,9.2
2023-05-06T17:08:03.571Z,9.2
2023-05-06T17:10:02.259Z,9.2
2023-05-06T17:12:03.282Z,9.2
2023-05-06T17:14:04.990Z,9.2
2023-05-06T17:16:04.799Z,9.2
2023-05-06T17:18:02.340Z,9.3
2023-05-06T17:20:05.318Z,9.3
2023-05-06T17:22:04.403Z,9.3
2023-05-06T17:24:04.573Z,9.3
2023-05-06T17:26:09.759Z,9.3
2023-05-06T17:28:02.987Z,9.3
2023-05-06T17:30:08.938Z,9.3
2023-05-06T17:32:02.565Z,9.3
2023-05-06T17:34:03.491Z,9.3
2023-05-06T17:36:03.946Z,9.3
2023-05-06T17:38:02.341Z,9.3
2023-05-06T17:40:05.139Z,9.3
2023-05-06T17:42:02.854Z,9.3
2023-05-06T17:44:02.543Z,9.3
2023-05-06T17:46:02.802Z,9.3
2023-05-06T17:48:08.017Z,9.3
2023-05-06T17:50:05.286Z,9.3
2023-05-06T17:52:03.132Z,9.3
2023-05-06T17:54:02.516Z,9.4
2023-05-06T17:56:02.289Z,9.4
2023-05-06T17:58:02.846Z,9.4
2023-05-06T18:00:04.450Z,9.5
2023-05-06T18:02:02.430Z,9.6
2023-05-06T18:04:02.801Z,9.7
2023-05-06T18:06:03.807Z,9.7
2023-05-06T18:08:05.331Z,9.7
2023-05-06T18:10:06.775Z,9.8
2023-05-06T18:12:03.162Z,9.9
2023-05-06T18:14:05.884Z,9.9
2023-05-06T18:16:02.372Z,9.9
2023-05-06T18:18:04.311Z,9.9
2023-05-06T18:20:07.470Z,9.9
2023-05-06T18:22:04.371Z,9.9
2023-05-06T18:24:15.346Z,10.0
2023-05-06T18:26:05.331Z,10.0
2023-05-06T18:28:04.455Z,10.1
2023-05-06T18:30:02.410Z,10.1
2023-05-06T18:32:06.431Z,10.2
2023-05-06T18:34:02.726Z,10.2
2023-05-06T18:36:03.068Z,10.3
2023-05-06T18:38:02.603Z,10.3
2023-05-06T18:40:02.668Z,10.3
2023-05-06T18:42:03.477Z,10.3
2023-05-06T18:44:04.100Z,10.3
2023-05-06T18:46:04.776Z,10.3
2023-05-06T18:48:03.194Z,10.3
2023-05-06T18:50:02.509Z,10.3
2023-05-06T18:52:02.646Z,10.3
2023-05-06T18:54:02.344Z,10.3
2023-05-06T18:56:03.113Z,10.3
2023-05-06T18:58:05.272Z,10.4
2023-05-06T19:00:06.503Z,10.4
2023-05-06T19:02:04.112Z,10.4
2023-05-06T19:04:02.295Z,10.4
2023-05-06T19:06:04.445Z,10.5
2023-05-06T19:08:04.594Z,10.5
2023-05-06T19:10:06.284Z,10.5
2023-05-06T19:12:03.752Z,10.5
2023-05-06T19:14:02.959Z,10.5
2023-05-06T19:16:04.029Z,10.5
2023-05-06T19:18:04.564Z,10.5
2023-05-06T19:20:02.876Z,10.5
2023-05-06T19:22:03.616Z,10.4
2023-05-06T19:24:04.442Z,10.5
2023-05-06T19:26:06.310Z,10.5
2023-05-06T19:28:04.185Z,10.6
2023-05-06T19:30:03.574Z,10.6
2023-05-06T19:32:02.459Z,10.6
2023-05-06T19:34:04.287Z,10.7
2023-05-06T19:36:04.678Z,10.8
2023-05-06T19:38:03.031Z,10.9
2023-05-06T19:40:03.308Z,10.9
2023-05-06T19:42:02.552Z,11.1
2023-05-06T19:44:02.787Z,11.1
2023-05-06T19:46:02.438Z,11.2
2023-05-06T19:48:03.643Z,11.3
2023-05-06T19:50:02.774Z,11.4
2023-05-06T19:52:02.437Z,11.4
2023-05-06T19:54:02.537Z,11.5
2023-05-06T19:56:09.073Z,11.6
2023-05-06T19:58:02.474Z,11.6
2023-05-06T20:00:05.472Z,11.7
2023-05-06T20:02:02.775Z,11.7
2023-05-06T20:04:07.548Z,11.8
2023-05-06T20:06:05.574Z,11.9
2023-05-06T20:08:04.682Z,12.1
2023-05-06T20:10:05.072Z,12.1
2023-05-06T20:14:26.901Z,12.2
2023-05-06T20:16:24.782Z,12.1
2023-05-06T20:19:01.285Z,12.1
2023-05-06T20:20:23.928Z,12.0
2023-05-06T20:23:31.493Z,11.9
2023-05-06T20:24:55.815Z,11.9
2023-05-06T20:26:41.789Z,11.9
2023-05-06T20:29:03.824Z,12.0
2023-05-06T20:30:11.281Z,11.9
2023-05-06T20:32:45.749Z,11.9
2023-05-06T20:34:43.359Z,12.0
2023-05-06T20:38:33.619Z,12.1
2023-05-06T20:42:39.084Z,12.6
2023-05-06T20:44:06.388Z,12.8
2023-05-06T20:46:48.772Z,13.4
2023-05-06T20:48:33.036Z,13.7
2023-05-06T20:50:19.626Z,13.8
2023-05-06T20:52:08.423Z,13.8
2023-05-06T20:54:10.634Z,13.7
2023-05-06T20:56:22.500Z,13.6
2023-05-06T20:58:06.539Z,13.6
2023-05-06T21:00:09.491Z,13.6
2023-05-06T21:02:15.644Z,13.6
2023-05-06T21:04:30.316Z,13.6
2023-05-06T21:06:19.921Z,13.7
2023-05-06T21:08:03.782Z,13.6
2023-05-06T21:10:05.778Z,13.5
2023-05-06T21:12:08.751Z,13.4
2023-05-06T21:14:03.362Z,13.3
2023-05-06T21:16:04.317Z,13.3
2023-05-06T21:18:02.369Z,13.4
2023-05-06T21:20:04.296Z,13.5
2023-05-06T21:22:02.765Z,13.6
2023-05-06T21:24:03.820Z,13.6
2023-05-06T21:26:02.880Z,13.5
2023-05-06T21:28:06.680Z,13.5
2023-05-06T21:30:02.670Z,13.5
2023-05-06T21:32:02.254Z,13.5
2023-05-06T21:34:03.602Z,13.5
2023-05-06T21:36:02.185Z,13.5
2023-05-06T21:38:02.288Z,13.6
2023-05-06T21:40:03.957Z,13.7
2023-05-06T21:42:02.491Z,13.8
2023-05-06T21:44:07.738Z,13.8
2023-05-06T21:46:07.149Z,13.9
2023-05-06T21:48:03.928Z,13.9
2023-05-06T21:50:03.065Z,14.0
2023-05-06T21:52:02.925Z,13.9
2023-05-06T21:54:04.379Z,13.9
2023-05-06T21:56:02.855Z,13.8
2023-05-06T21:58:02.251Z,13.8
2023-05-06T22:00:15.390Z,13.9
2023-05-06T22:02:03.214Z,13.9
2023-05-06T22:04:04.211Z,13.9
2023-05-06T22:06:05.096Z,13.8
2023-05-06T22:08:02.799Z,13.8
2023-05-06T22:10:04.406Z,13.7
2023-05-06T22:12:06.162Z,13.8
2023-05-06T22:14:07.130Z,13.7
2023-05-06T22:16:03.531Z,13.7
2023-05-06T22:18:02.985Z,13.7
2023-05-06T22:20:02.161Z,13.7
2023-05-06T22:22:02.194Z,13.7
2023-05-06T22:24:02.902Z,13.6
2023-05-06T22:26:02.094Z,13.6
2023-05-06T22:28:02.472Z,13.6
2023-05-06T22:34:04.182Z,13.7
2023-05-06T22:36:02.352Z,13.8
2023-05-06T22:38:02.410Z,13.7
2023-05-06T22:40:02.556Z,13.8
2023-05-06T22:42:02.358Z,13.8
2023-05-06T22:44:02.360Z,13.8
2023-05-06T22:46:03.757Z,13.8
2023-05-06T22:48:02.591Z,13.8
2023-05-06T22:50:02.645Z,13.9
2023-05-06T22:52:02.565Z,13.9
2023-05-06T22:54:02.388Z,13.9
2023-05-06T22:56:02.935Z,13.9
2023-05-06T22:58:02.814Z,13.9
2023-05-06T23:00:02.970Z,13.8
2023-05-06T23:02:03.141Z,13.8
2023-05-06T23:04:02.446Z,13.8
2023-05-06T23:06:03.833Z,13.8
2023-05-06T23:08:02.370Z,13.8
2023-05-06T23:10:02.831Z,13.8
2023-05-06T23:12:02.543Z,13.9
2023-05-06T23:14:02.416Z,14.0
2023-05-06T23:16:03.287Z,14.2
2023-05-06T23:18:02.592Z,14.2
2023-05-06T23:20:03.222Z,14.3
2023-05-06T23:22:03.995Z,14.3
2023-05-06T23:24:02.404Z,14.2
2023-05-06T23:26:02.995Z,14.1
2023-05-06T23:28:02.511Z,14.1
2023-05-06T23:30:03.210Z,14.1
2023-05-06T23:32:03.325Z,14.1
2023-05-06T23:34:02.823Z,14.1
2023-05-06T23:36:02.425Z,14.1
2023-05-06T23:38:02.407Z,13.9
2023-05-06T23:40:03.180Z,13.9
2023-05-06T23:42:02.771Z,13.8
2023-05-06T23:44:02.591Z,13.7
2023-05-06T23:46:02.827Z,13.7
2023-05-06T23:48:02.482Z,13.6
2023-05-06T23:50:02.416Z,13.6
2023-05-06T23:52:02.865Z,13.5
2023-05-06T23:54:02.520Z,13.5
2023-05-06T23:56:02.699Z,13.4
2023-05-06T23:58:02.708Z,13.4
